Terminal Aerodrome Forecast
Issued by NWS

Home | Current Version | Previous Version | Text Only | Print | Product List | Glossary On
Versions: 1 2 3 4 5 6 7 8 9 10 11 12
263
FTUS45 KRIW 212333
TAFBPI
TAF
KBPI 212333Z 2200/2224 24012G22KT 3SM -SN OVC015
     FM220200 29015KT 2SM -SN OVC018
     FM220600 30013KT 5SM -SN OVC025
     FM220900 30009KT P6SM BKN050
     FM221700 02006KT P6SM VCSH BKN040=

USA.gov is the U.S. government's official web portal to all federal, state and local government web resources and services.